Terminal Aerodrome Forecast
Issued by NWS Paducah, KY

Home | Current Version | Previous Version | Text Only | Print | Product List | Glossary Off
Versions: 1 2 3 4 5 6 7 8 9 10 11 12 13 14

000
FTUS43 KPAH 271700
TAFPAH
TAF
KPAH 271720Z 2718/2818 25012G18KT P6SM SCT035
     FM272100 29013G20KT P6SM SCT050
     FM280100 31007KT P6SM SCT250
     FM281500 34009KT P6SM SCT040=

USA.gov is the U.S. government's official web portal to all federal, state and local government web resources and services.